Cic Pride — H9SQ — position and weather

sailwx.info

Track history (hours):
 
Tides and Currents Weather Stations Pressure Air Temp Water Temp Dewpoint Dewpoint Depression Visibility Wind Speed Wind Dir Waves Ship Positions

Cic Pride

Last reported at 2017-Dec-12 21:14 UTC. Time now 2017-Dec-15 20:03 UTC.
Position N 36°34' E 014°52'.

Length 289 m; draft 14.8 m.

Type: Cargo ship. MMSI: 351111000.

Date/timePositionNaut miles runAvg speedWind from/ knotsBaromVisibWave heightAir tempDewpointWater temp
2017-Dec-12 21:14N 36°34' E 014°52'415.2
2017-Dec-12 20:58N 36°35' E 014°47'613.0
2017-Dec-12 20:30N 36°37' E 014°40'5614.1
2017-Dec-12 16:33N 36°52' E 013°33'113.4
2017-Dec-12 16:27N 36°53' E 013°31'  
2017-Dec-08 12:20N 36°25' W 008°54'412.5
2017-Dec-08 12:00N 36°26' W 008°59'3812.2
2017-Dec-08 08:53N 36°35' W 009°45'1512.0
2017-Dec-08 07:38N 36°40' W 010°03'  
Track history (hours):
 
Tides and Currents Weather Stations Pressure Air Temp Water Temp Dewpoint Dewpoint Depression Visibility Wind Speed Wind Dir Waves Ship Positions

Cic Pride

Last reported at 2017-Dec-12 21:14 UTC. Time now 2017-Dec-15 20:03 UTC.
Position N 36°34' E 014°52'.

Length 289 m; draft 14.8 m.

Type: Cargo ship. MMSI: 351111000.

Date/timePositionNaut miles runAvg speedWind from/ knotsBaromVisibWave heightAir tempDewpointWater temp
2017-Dec-12 21:14N 36°34' E 014°52'415.2
2017-Dec-12 20:58N 36°35' E 014°47'613.0
2017-Dec-12 20:30N 36°37' E 014°40'5614.1
2017-Dec-12 16:33N 36°52' E 013°33'113.4
2017-Dec-12 16:27N 36°53' E 013°31'  
2017-Dec-08 12:20N 36°25' W 008°54'412.5
2017-Dec-08 12:00N 36°26' W 008°59'3812.2
2017-Dec-08 08:53N 36°35' W 009°45'1512.0
2017-Dec-08 07:38N 36°40' W 010°03'  

Dump ship's entire track history